Time;durP1;ratioP1;P1;durP2;ratioP2;P2;SDS_P1;SDS_P2;PMS_P1;PMS_P2;Temp;Humidity;BMP_temperature;BMP_pressure;BME280_temperature;BME280_humidity;BME280_pressure;Samples;Min_cycle;Max_cycle;Signal;HPM_P1;HPM_P2
2021/10/29 00:00:34;;;;;;;65.65;42.70;;;;;;;6.78;75.78;101187.69;1639208;86;21031;-67
2021/10/29 00:03:06;;;;;;;66.25;42.15;;;;;;;6.75;75.76;101182.56;1665675;84;21437;-67
2021/10/29 00:05:34;;;;;;;61.25;39.20;;;;;;;6.73;75.75;101184.25;1652580;84;21083;-67
2021/10/29 00:08:00;;;;;;;56.23;36.08;;;;;;;6.69;75.75;101177.36;1669115;85;21603;-67
2021/10/29 00:10:28;;;;;;;54.03;34.45;;;;;;;6.67;75.81;101182.05;1652692;85;21843;-67
2021/10/29 00:12:54;;;;;;;52.93;33.30;;;;;;;6.63;75.85;101182.02;1659901;84;21096;-67
2021/10/29 00:15:21;;;;;;;58.30;34.92;;;;;;;6.60;75.82;101178.14;1648730;86;21146;-67
2021/10/29 00:17:49;;;;;;;54.75;34.85;;;;;;;6.60;75.93;101181.13;1679283;84;21443;-67
2021/10/29 00:20:16;;;;;;;57.65;35.03;;;;;;;6.59;75.95;101178.12;1668040;85;21654;-67
2021/10/29 00:22:42;;;;;;;56.80;34.60;;;;;;;6.56;75.90;101180.24;1677336;85;21066;-67
2021/10/29 00:25:09;;;;;;;50.07;32.77;;;;;;;6.52;75.98;101170.78;1676779;84;21039;-67
2021/10/29 00:27:41;;;;;;;58.98;35.83;;;;;;;6.52;75.98;101170.78;1668738;85;21611;-67
2021/10/29 00:30:09;;;;;;;55.30;35.30;;;;;;;6.50;75.91;101170.33;1677549;85;21363;-67
2021/10/29 00:32:35;;;;;;;55.05;34.33;;;;;;;6.47;75.96;101169.88;1674304;85;21631;-67
2021/10/29 00:35:05;;;;;;;54.80;32.33;;;;;;;6.45;75.98;101170.70;1668490;85;21453;-67
2021/10/29 00:37:37;;;;;;;53.33;34.13;;;;;;;6.42;75.97;101167.69;1662194;85;21538;-67
2021/10/29 00:39:59;;;;;;;58.63;37.15;;;;;;;6.38;75.93;101168.50;1641183;87;21512;-67
2021/10/29 00:42:25;;;;;;;64.93;39.53;;;;;;;6.36;76.03;101160.34;1672010;84;20955;-67
2021/10/29 00:44:51;;;;;;;62.77;40.07;;;;;;;6.34;76.04;101169.31;1677751;85;21108;-67
2021/10/29 00:47:16;;;;;;;61.60;39.17;;;;;;;6.33;76.05;101164.16;1677979;85;21443;-67
2021/10/29 00:49:42;;;;;;;63.20;38.87;;;;;;;6.29;76.00;101162.84;1671938;84;21476;-67
2021/10/29 00:52:09;;;;;;;60.80;38.63;;;;;;;6.25;76.04;101161.09;1661940;85;21397;-67
2021/10/29 00:54:35;;;;;;;60.15;38.02;;;;;;;6.22;76.06;101157.24;1667932;84;21567;-67
2021/10/29 00:57:02;;;;;;;59.37;38.27;;;;;;;6.22;76.13;101165.37;1658757;84;21030;-67
2021/10/29 00:59:28;;;;;;;;;;;;;;;6.18;76.14;101161.91;1665450;85;20961;-67
2021/10/29 01:01:54;;;;;;;50.07;32.97;;;;;;;6.18;76.36;101154.63;1672932;85;20619;-67
2021/10/29 01:04:20;;;;;;;52.15;32.42;;;;;;;6.18;76.25;101157.19;1678500;84;21412;-67
2021/10/29 01:06:46;;;;;;;49.50;32.67;;;;;;;6.17;76.21;101158.90;1664063;85;20940;-67
2021/10/29 01:09:13;;;;;;;49.80;30.95;;;;;;;6.15;76.21;101150.73;1664282;84;20979;-67
2021/10/29 01:11:42;;;;;;;53.58;31.15;;;;;;;6.15;76.23;101158.45;1672924;85;21512;-67
2021/10/29 01:14:08;;;;;;;46.63;30.05;;;;;;;6.13;76.19;101157.56;1679080;84;21517;-67
2021/10/29 01:16:35;;;;;;;45.95;29.45;;;;;;;6.10;76.17;101152.40;1679331;84;21525;-67
2021/10/29 01:19:02;;;;;;;48.15;30.65;;;;;;;6.07;76.19;101154.50;1679382;85;20923;-67
2021/10/29 01:21:28;;;;;;;53.35;31.45;;;;;;;6.02;76.12;101154.88;1678062;84;20945;-67
2021/10/29 01:23:54;;;;;;;46.68;30.80;;;;;;;5.97;76.14;101148.41;1679559;85;21459;-67
2021/10/29 01:26:23;;;;;;;48.60;29.23;;;;;;;5.94;76.19;101143.66;1661284;84;20936;-67
2021/10/29 01:28:50;;;;;;;42.93;27.77;;;;;;;5.92;76.19;101145.34;1665423;84;20932;-67
2021/10/29 01:31:17;;;;;;;46.93;28.60;;;;;;;5.88;76.20;101145.70;1660021;85;20887;-67
2021/10/29 01:33:43;;;;;;;;;;;;;;;5.85;76.21;101140.95;1681911;84;20918;-67
2021/10/29 01:36:10;;;;;;;42.75;25.15;;;;;;;5.81;76.31;101143.91;1669418;84;20464;-67
2021/10/29 01:38:42;;;;;;;45.05;26.35;;;;;;;5.77;76.21;101140.86;1652282;85;20916;-67
2021/10/29 01:41:10;;;;;;;38.28;25.85;;;;;;;5.71;76.18;101142.10;1663867;85;20948;-67
2021/10/29 01:43:42;;;;;;;42.10;25.15;;;;;;;5.68;76.23;101144.63;1650726;85;440875;-67
2021/10/29 01:46:10;;;;;;;36.85;25.10;;;;;;;5.64;76.19;101141.59;1662712;83;20941;-67
2021/10/29 01:48:45;;;;;;;40.33;24.55;;;;;;;5.60;76.23;101137.26;1670719;85;20968;-67
2021/10/29 01:51:12;;;;;;;51.70;26.10;;;;;;;5.56;76.28;101131.23;1660362;83;20945;-67
2021/10/29 01:53:39;;;;;;;40.12;24.10;;;;;;;5.53;76.25;101123.91;1660241;85;20984;-67
2021/10/29 01:56:09;;;;;;;43.23;24.65;;;;;;;5.48;76.20;101122.57;1672579;85;21953;-67
2021/10/29 01:58:36;;;;;;;38.13;24.15;;;;;;;5.42;76.24;101122.49;1675675;85;20932;-67
2021/10/29 02:01:04;;;;;;;39.67;23.32;;;;;;;5.41;76.34;101123.75;1672059;84;20924;-67
2021/10/29 02:03:45;;;;;;;39.88;24.55;;;;;;;5.38;76.35;101116.88;1645327;86;20954;-67
2021/10/29 02:06:11;;;;;;;41.15;23.60;;;;;;;5.36;76.32;101118.98;1669545;85;20910;-67
2021/10/29 02:08:37;;;;;;;40.00;24.07;;;;;;;5.32;76.34;101113.81;1638809;85;20953;-67
2021/10/29 02:11:03;;;;;;;42.67;23.03;;;;;;;5.31;76.34;101113.80;1639634;87;21008;-67
2021/10/29 02:13:29;;;;;;;36.67;23.93;;;;;;;5.28;76.33;101104.78;1618412;87;20908;-67
2021/10/29 02:15:55;;;;;;;40.03;24.00;;;;;;;5.25;76.33;101104.73;1618711;85;20891;-67
2021/10/29 02:18:22;;;;;;;37.10;23.98;;;;;;;5.20;76.37;101093.59;1624522;87;20966;-67
2021/10/29 02:20:49;;;;;;;40.80;23.25;;;;;;;5.15;76.33;101096.51;1640122;85;20933;-67
2021/10/29 02:23:16;;;;;;;33.47;23.23;;;;;;;5.11;76.46;101096.88;1664242;85;20876;-67
2021/10/29 02:25:46;;;;;;;35.75;22.93;;;;;;;5.11;76.48;101094.33;1626497;87;20936;-67
2021/10/29 02:28:21;;;;;;;37.93;25.12;;;;;;;5.07;76.45;101092.55;1636630;86;20915;-67
2021/10/29 02:30:49;;;;;;;40.50;24.95;;;;;;;5.01;76.43;101089.05;1636552;86;20942;-67
2021/10/29 02:33:17;;;;;;;37.88;24.23;;;;;;;4.99;76.48;101090.30;1629865;87;21428;-67
2021/10/29 02:35:45;;;;;;;33.95;24.25;;;;;;;4.97;76.61;101080.45;1651749;84;20922;-67
2021/10/29 02:38:12;;;;;;;38.92;24.15;;;;;;;4.98;76.63;101084.31;1644016;85;22143;-67
2021/10/29 02:40:38;;;;;;;34.92;22.85;;;;;;;4.97;76.53;101080.45;1611032;87;20971;-67
2021/10/29 02:43:04;;;;;;;31.37;22.67;;;;;;;4.90;76.42;101080.78;1647573;84;20914;-67
2021/10/29 02:45:30;;;;;;;34.95;22.70;;;;;;;4.86;76.41;101076.87;1656434;85;20981;-67
2021/10/29 02:47:57;;;;;;;35.15;23.15;;;;;;;4.77;76.39;101081.86;1648960;86;20956;-67
2021/10/29 02:50:24;;;;;;;36.28;23.35;;;;;;;4.70;76.44;101081.31;1656770;84;21403;-67
2021/10/29 02:52:51;;;;;;;39.13;24.27;;;;;;;4.68;76.54;101086.42;1640676;87;20978;-67
2021/10/29 02:55:18;;;;;;;37.75;23.52;;;;;;;4.67;76.63;101080.02;1653741;84;21036;-67
2021/10/29 02:57:45;;;;;;;38.78;22.90;;;;;;;4.67;76.64;101081.30;1649575;85;20965;-67
2021/10/29 03:00:14;;;;;;;;;;;;;;;4.65;76.57;101083.84;1663491;84;21004;-67
2021/10/29 03:02:43;;;;;;;32.40;20.80;;;;;;;4.59;76.55;101079.48;1669995;85;20212;-67
2021/10/29 03:05:11;;;;;;;30.20;21.50;;;;;;;4.52;76.50;101079.36;1670671;84;21116;-67
2021/10/29 03:07:37;;;;;;;35.35;21.85;;;;;;;4.48;76.51;101077.59;1660081;85;21052;-67
2021/10/29 03:10:08;;;;;;;37.78;21.95;;;;;;;4.45;76.55;101077.53;1641469;85;21508;-67
2021/10/29 03:12:35;;;;;;;31.30;20.75;;;;;;;4.41;76.53;101075.34;1669918;85;21061;-67
2021/10/29 03:15:03;;;;;;;29.98;18.98;;;;;;;4.35;76.49;101076.52;1670846;84;21056;-67
2021/10/29 03:17:29;;;;;;;34.08;20.80;;;;;;;4.30;76.48;101076.86;1672821;85;20921;-67
2021/10/29 03:19:55;;;;;;;35.60;21.15;;;;;;;4.26;76.46;101073.80;1646257;85;21072;-67
2021/10/29 03:22:21;;;;;;;35.73;21.60;;;;;;;4.22;76.50;101077.15;1668218;84;20907;-67
2021/10/29 03:24:46;;;;;;;37.00;22.40;;;;;;;4.18;76.53;101081.77;1671536;85;20921;-67
2021/10/29 03:27:12;;;;;;;35.77;22.07;;;;;;;4.15;76.59;101076.21;1671618;85;20870;-67
2021/10/29 03:29:39;;;;;;;33.00;21.57;;;;;;;4.15;76.76;101074.93;1658988;84;21038;-67
2021/10/29 03:32:08;;;;;;;31.50;21.23;;;;;;;4.16;76.66;101075.80;1669594;85;21595;-67
2021/10/29 03:34:34;;;;;;;36.20;22.32;;;;;;;4.14;76.69;101077.05;1670364;84;21088;-67
2021/10/29 03:37:03;;;;;;;33.63;20.77;;;;;;;4.14;76.69;101074.91;1654485;86;21276;-67
2021/10/29 03:39:36;;;;;;;32.58;20.85;;;;;;;4.11;76.68;101068.03;1656392;85;21049;-67
2021/10/29 03:42:13;;;;;;;35.20;20.25;;;;;;;4.11;76.72;101077.41;1654381;86;21141;-67
2021/10/29 03:44:47;;;;;;;31.52;20.50;;;;;;;4.09;76.67;101076.10;1641773;85;20986;-67
2021/10/29 03:47:03;;;;;;;31.55;20.62;;;;;;;4.06;76.67;101082.45;1641770;86;20891;-67
2021/10/29 03:49:34;;;;;;;31.87;20.68;;;;;;;4.04;76.71;101081.55;1657180;85;26603;-67
2021/10/29 03:52:09;;;;;;;31.15;20.48;;;;;;;4.01;76.67;101078.94;1654131;85;20934;-67
2021/10/29 03:54:31;;;;;;;34.53;22.22;;;;;;;3.98;76.78;101075.91;1646731;86;20973;-67
2021/10/29 03:59:28;;;;;;;28.90;18.75;;;;;;;3.98;76.78;101072.48;1649951;85;20970;-67
2021/10/29 04:01:54;;;;;;;31.17;20.40;;;;;;;3.95;76.72;101074.98;1652108;85;20922;-67
2021/10/29 04:04:20;;;;;;;29.55;19.32;;;;;;;3.94;76.75;101078.38;1650374;85;21020;-67
2021/10/29 04:06:46;;;;;;;33.10;19.93;;;;;;;3.91;76.79;101077.91;1648629;85;20914;-67
2021/10/29 04:09:13;;;;;;;32.10;21.15;;;;;;;3.91;76.80;101072.79;1672713;84;20949;-67
2021/10/29 04:11:40;;;;;;;;;;;;;;;3.88;76.81;101075.30;1670744;84;20973;-69
2021/10/29 04:14:09;;;;;;;29.63;19.80;;;;;;;3.88;76.88;101080.83;1672264;85;20089;-69
2021/10/29 04:16:37;;;;;;;33.80;19.12;;;;;;;3.86;76.86;101076.96;1664252;84;20977;-70
2021/10/29 04:19:07;;;;;;;34.25;20.85;;;;;;;3.85;76.86;101073.95;1671857;85;20925;-70
2021/10/29 04:21:37;;;;;;;32.05;20.70;;;;;;;3.88;77.01;101073.16;1672401;85;20960;-70
2021/10/29 04:24:05;;;;;;;32.45;21.10;;;;;;;;;;1672987;85;20920;-70
2021/10/29 04:26:32;;;;;;;32.33;20.88;;;;;;;3.87;76.88;101077.41;1663119;84;20922;-69
2021/10/29 04:29:01;;;;;;;37.88;22.25;;;;;;;3.84;76.89;101076.07;1668459;85;21052;-69
2021/10/29 04:31:30;;;;;;;36.05;20.80;;;;;;;3.83;76.97;101073.48;1667393;85;21045;-69
2021/10/29 04:33:56;;;;;;;33.65;21.52;;;;;;;3.83;76.93;101071.78;1636036;85;21138;-70
2021/10/29 04:36:24;;;;;;;34.18;21.02;;;;;;;3.82;76.97;101072.62;1631000;86;21678;-69
2021/10/29 04:38:51;;;;;;;31.70;20.88;;;;;;;3.82;76.94;101070.48;1669225;84;21036;-69
2021/10/29 04:41:17;;;;;;;28.52;19.70;;;;;;;3.80;76.92;101074.28;1663735;84;21121;-69
2021/10/29 04:43:44;;;;;;;30.88;20.50;;;;;;;3.77;76.90;101075.92;1666771;84;21018;-69
2021/10/29 04:46:10;;;;;;;32.42;20.45;;;;;;;3.76;77.01;101078.03;1664474;84;21159;-69
2021/10/29 04:48:37;;;;;;;29.60;20.00;;;;;;;3.77;76.99;101074.23;1662950;84;20978;-69
2021/10/29 04:51:10;;;;;;;33.85;19.45;;;;;;;3.78;77.01;101069.98;1651012;85;21097;-69
2021/10/29 04:53:36;;;;;;;28.17;19.10;;;;;;;3.79;77.07;101074.26;1665652;85;20917;-69
2021/10/29 04:56:04;;;;;;;29.80;19.47;;;;;;;3.77;77.04;101069.11;1668493;85;20905;-69
2021/10/29 04:58:30;;;;;;;30.88;20.50;;;;;;;3.75;76.97;101065.66;1651955;84;21024;-69
2021/10/29 05:00:56;;;;;;;32.15;19.80;;;;;;;3.74;77.03;101067.78;1661139;85;21061;-69
2021/10/29 05:03:22;;;;;;;30.32;19.67;;;;;;;3.71;77.00;101059.18;1666398;85;21168;-69
2021/10/29 05:05:48;;;;;;;35.30;20.83;;;;;;;3.70;76.99;101062.16;1659958;84;20944;-69
2021/10/29 05:08:14;;;;;;;37.20;22.10;;;;;;;3.67;77.04;101056.98;1665535;85;20929;-69
2021/10/29 05:10:42;;;;;;;37.28;21.90;;;;;;;3.64;77.10;101056.92;1666756;85;21148;-69
2021/10/29 05:13:08;;;;;;;33.00;21.12;;;;;;;3.63;77.14;101052.26;1665387;84;21045;-69
2021/10/29 05:15:34;;;;;;;53.50;28.87;;;;;;;3.65;77.14;101048.42;1659994;85;20945;-69
2021/10/29 05:18:01;;;;;;;56.23;29.70;;;;;;;3.64;77.14;101052.67;1667807;85;21154;-70
2021/10/29 05:20:27;;;;;;;49.63;26.82;;;;;;;3.63;77.09;101052.67;1658184;84;21061;-70
2021/10/29 05:22:53;;;;;;;40.50;25.95;;;;;;;3.60;77.06;101057.31;1668323;85;21004;-70
2021/10/29 05:25:20;;;;;;;37.00;23.20;;;;;;;3.60;77.15;101050.06;1668218;85;21128;-70
2021/10/29 05:27:46;;;;;;;41.10;24.15;;;;;;;3.58;77.05;101057.70;1668058;84;21491;-70
2021/10/29 05:30:12;;;;;;;31.02;20.25;;;;;;;3.56;77.15;101058.08;1665658;84;21020;-69
2021/10/29 05:32:39;;;;;;;33.08;20.92;;;;;;;3.56;77.16;101061.92;1664774;84;21082;-69
2021/10/29 05:35:07;;;;;;;31.12;20.88;;;;;;;3.56;77.17;101055.94;1665842;85;21009;-69
2021/10/29 05:37:35;;;;;;;36.23;22.52;;;;;;;3.55;77.19;101056.78;1667953;85;21759;-69
2021/10/29 05:40:07;;;;;;;36.30;21.48;;;;;;;3.55;77.21;101056.78;1654368;85;21116;-69
2021/10/29 05:42:33;;;;;;;30.30;20.97;;;;;;;3.55;77.24;101062.75;1661471;84;20903;-69
2021/10/29 05:45:00;;;;;;;31.33;20.57;;;;;;;3.56;77.23;101060.64;1668330;85;21146;-69
2021/10/29 05:47:27;;;;;;;39.63;22.65;;;;;;;3.57;77.31;101061.50;1669927;85;20910;-69
2021/10/29 05:49:53;;;;;;;36.68;21.77;;;;;;;3.56;77.24;101064.48;1669182;85;21516;-69
2021/10/29 05:52:21;;;;;;;32.03;20.70;;;;;;;3.56;77.22;101067.03;1655065;84;20954;-69
2021/10/29 05:55:12;;;;;;;34.05;21.30;;;;;;;3.54;77.16;101069.98;1662500;84;20970;-69
2021/10/29 05:57:18;;;;;;;31.25;20.50;;;;;;;3.52;77.23;101061.83;1663003;85;20934;-69
2021/10/29 05:59:44;;;;;;;32.23;21.53;;;;;;;3.51;77.23;101063.94;1648512;86;20913;-69
2021/10/29 06:02:10;;;;;;;32.60;20.27;;;;;;;3.51;77.24;101067.36;1665899;84;21606;-69
2021/10/29 06:04:36;;;;;;;34.10;20.50;;;;;;;3.51;77.32;101074.16;1669537;85;21247;-69
2021/10/29 06:07:03;;;;;;;31.48;20.17;;;;;;;3.51;77.30;101064.80;1669269;85;21584;-69
2021/10/29 06:09:29;;;;;;;38.70;20.97;;;;;;;3.51;77.34;101062.66;1626332;85;21539;-69
2021/10/29 06:11:55;;;;;;;38.53;22.07;;;;;;;3.52;77.34;101060.14;1647729;86;20959;-69
2021/10/29 06:14:23;;;;;;;36.70;20.52;;;;;;;3.53;77.35;101061.86;1646415;85;21676;-69
2021/10/29 06:16:49;;;;;;;30.52;19.98;;;;;;;3.54;77.38;101060.16;1601308;88;20983;-69
2021/10/29 06:19:15;;;;;;;28.80;19.70;;;;;;;3.56;77.35;101062.34;1617672;87;24049;-69
2021/10/29 06:24:12;;;;;;;28.52;19.30;;;;;;;3.60;77.52;101057.31;1628773;85;21029;-69
2021/10/29 06:26:49;;;;;;;29.80;20.02;;;;;;;3.61;77.50;101058.17;1665419;85;21387;-69
2021/10/29 06:29:10;;;;;;;31.12;20.15;;;;;;;3.70;77.53;101062.16;1648034;84;21050;-69
2021/10/29 06:31:36;;;;;;;48.17;29.70;;;;;;;3.76;77.47;101057.58;1664983;85;21059;-69
2021/10/29 06:34:03;;;;;;;43.53;26.73;;;;;;;3.80;77.52;101065.33;1643497;87;20944;-69
2021/10/29 06:36:32;;;;;;;47.00;26.48;;;;;;;3.87;77.66;101063.75;1632840;85;21389;-69
2021/10/29 06:39:00;;;;;;;51.43;29.63;;;;;;;3.96;77.66;101067.34;1639794;87;21596;-69
2021/10/29 06:41:28;;;;;;;73.62;37.55;;;;;;;4.03;77.62;101059.78;1643195;85;21600;-69
2021/10/29 06:46:45;;;;;;;58.00;30.68;;;;;;;4.17;77.68;101062.12;1622031;85;21033;-69
2021/10/29 06:52:26;;;;;;;44.13;25.90;;;;;;;4.32;77.69;101068.79;1606247;87;21081;-69
2021/10/29 06:59:59;;;;;;;40.15;22.55;;;;;;;4.53;77.73;101067.00;1579361;87;21102;-69
2021/10/29 07:41:07;;;;;;;35.65;21.70;;;;;;;5.81;77.93;101075.91;1666132;84;21061;-69
2021/10/29 07:43:42;;;;;;;32.17;20.80;;;;;;;5.92;77.95;101073.06;1673554;85;20944;-69
2021/10/29 07:46:05;;;;;;;32.53;19.95;;;;;;;6.03;77.94;101070.61;1672673;85;20941;-69
2021/10/29 07:48:33;;;;;;;30.40;19.92;;;;;;;6.15;77.94;101075.86;1672083;84;20941;-69
2021/10/29 07:51:02;;;;;;;33.00;19.82;;;;;;;6.26;77.89;101074.64;1667053;85;20979;-69
2021/10/29 07:53:29;;;;;;;32.10;19.77;;;;;;;6.38;77.81;101076.46;1672326;85;20974;-69
2021/10/29 07:56:00;;;;;;;30.02;20.02;;;;;;;6.47;77.81;101074.83;1672301;85;20938;-69
2021/10/29 07:58:27;;;;;;;27.17;19.87;;;;;;;6.56;77.77;101077.89;1655423;84;20925;-69
2021/10/29 08:00:53;;;;;;;31.48;19.67;;;;;;;6.65;77.75;101083.11;1666531;85;20956;-69
2021/10/29 08:03:20;;;;;;;35.05;20.25;;;;;;;6.72;77.72;101082.30;1668737;85;20949;-69
2021/10/29 08:05:46;;;;;;;27.52;19.45;;;;;;;6.81;77.73;101074.63;1666684;84;20922;-69
2021/10/29 08:08:17;;;;;;;29.90;19.82;;;;;;;6.93;77.76;101079.85;1667072;85;21346;-69
2021/10/29 08:10:44;;;;;;;26.42;18.23;;;;;;;7.08;77.74;101078.23;1669043;85;21645;-69
2021/10/29 08:13:12;;;;;;;28.87;18.62;;;;;;;7.22;77.77;101079.16;1666473;84;21064;-69
2021/10/29 08:15:38;;;;;;;25.52;18.52;;;;;;;7.35;77.73;101079.62;1667821;84;21052;-69
2021/10/29 08:18:07;;;;;;;29.75;20.15;;;;;;;7.46;77.63;101077.96;1660194;85;20997;-69
2021/10/29 08:20:36;;;;;;;28.45;18.12;;;;;;;7.55;77.64;101078.42;1669796;84;21588;-70
2021/10/29 08:23:08;;;;;;;29.55;19.45;;;;;;;7.64;77.57;101074.60;1668285;85;21113;-69
2021/10/29 08:25:34;;;;;;;28.57;19.20;;;;;;;7.71;77.52;101076.77;1669310;85;21643;-69
2021/10/29 08:28:01;;;;;;;28.77;19.45;;;;;;;7.79;77.58;101075.94;1667294;85;20922;-69
2021/10/29 08:30:27;;;;;;;29.80;19.75;;;;;;;7.86;77.62;101072.92;1652677;84;21100;-70
2021/10/29 08:32:53;;;;;;;31.60;18.85;;;;;;;7.94;77.55;101077.23;1635692;86;21066;-70
2021/10/29 08:35:20;;;;;;;25.77;19.48;;;;;;;7.99;77.50;101074.66;1638312;86;21537;-70
2021/10/29 08:37:51;;;;;;;28.77;19.27;;;;;;;8.05;77.51;101072.53;1667551;84;21115;-70
2021/10/29 08:40:21;;;;;;;31.55;19.80;;;;;;;8.11;77.59;101066.10;1693970;82;20999;-69
2021/10/29 08:42:49;;;;;;;24.82;18.40;;;;;;;8.17;77.52;101072.55;1692373;83;20949;-69
2021/10/29 08:45:18;;;;;;;26.57;19.40;;;;;;;8.26;77.55;101073.42;1662921;84;21001;-69
2021/10/29 08:47:46;;;;;;;28.90;18.45;;;;;;;8.35;77.58;101073.00;1637703;87;21067;-70
2021/10/29 08:50:18;;;;;;;28.20;19.70;;;;;;;8.42;77.51;101065.70;1667596;85;21641;-70
2021/10/29 08:52:48;;;;;;;25.27;18.37;;;;;;;8.51;77.49;101073.00;1665190;85;21060;-70
2021/10/29 08:55:17;;;;;;;28.65;18.75;;;;;;;8.59;77.50;101064.84;1663606;84;21040;-70
2021/10/29 08:57:48;;;;;;;29.02;18.98;;;;;;;8.70;77.51;101067.41;1666509;85;20965;-70
2021/10/29 09:00:23;;;;;;;26.27;18.27;;;;;;;8.79;77.53;101069.98;1652101;84;21020;-69
2021/10/29 09:03:07;;;;;;;28.80;19.52;;;;;;;8.89;77.42;101066.49;1667520;85;21523;-69
2021/10/29 09:05:40;;;;;;;27.13;17.70;;;;;;;9.01;77.46;101067.33;1653888;86;21023;-70
2021/10/29 09:31:23;;;;;;;25.43;16.75;;;;;;;9.59;76.99;101067.53;1653482;85;21635;-70
2021/10/29 09:31:33;;;;;;;26.62;19.05;;;;;;;9.84;76.90;101071.28;1648792;85;22185;-69
2021/10/29 09:34:11;;;;;;;31.33;19.42;;;;;;;9.91;76.92;101072.94;1642983;85;21052;-69
2021/10/29 09:36:43;;;;;;;27.85;18.25;;;;;;;9.98;76.83;101070.73;1642542;85;21458;-69
2021/10/29 09:39:13;;;;;;;29.32;18.35;;;;;;;10.06;76.81;101073.27;1648738;85;20922;-69
2021/10/29 09:41:40;;;;;;;26.27;18.35;;;;;;;10.11;76.84;101070.23;1602912;88;20971;-69
2021/10/29 09:44:12;;;;;;;28.67;18.55;;;;;;;10.18;76.73;101068.88;1651138;85;22072;-69
2021/10/29 09:49:30;;;;;;;25.55;18.10;;;;;;;10.34;76.56;101073.55;1644481;85;21404;-69
2021/10/29 09:54:52;;;;;;;24.67;17.37;;;;;;;10.46;76.53;101068.25;1651299;85;22371;-70
2021/10/29 09:57:13;;;;;;;24.70;18.17;;;;;;;10.52;76.43;101065.61;1622220;87;21368;-70
2021/10/29 09:59:40;;;;;;;;;;;;;;;10.60;76.47;101066.41;1642366;85;22185;-70
2021/10/29 10:02:07;;;;;;;25.32;16.95;;;;;;;10.67;76.08;101069.80;1646072;85;20502;-70
2021/10/29 10:04:35;;;;;;;28.00;16.75;;;;;;;10.72;76.30;101065.44;1644646;87;21076;-70
2021/10/29 10:07:02;;;;;;;24.27;17.30;;;;;;;10.76;76.18;101071.00;1644282;85;21528;-70
2021/10/29 10:09:30;;;;;;;25.48;16.93;;;;;;;10.80;76.20;101070.10;1660968;85;21489;-70
2021/10/29 10:11:56;;;;;;;23.22;16.65;;;;;;;10.87;76.20;101072.20;1663255;85;22232;-70
2021/10/29 10:14:23;;;;;;;20.88;16.32;;;;;;;10.94;76.16;101069.94;1650620;85;21153;-70
2021/10/29 10:16:50;;;;;;;20.02;15.50;;;;;;;11.00;76.04;101069.02;1666938;85;21481;-70
2021/10/29 10:19:16;;;;;;;23.00;17.55;;;;;;;11.04;75.97;101066.81;1660508;84;22267;-70
2021/10/29 10:21:48;;;;;;;25.70;18.75;;;;;;;11.07;75.88;101059.88;1642037;85;21076;-70
2021/10/29 10:24:33;;;;;;;22.58;16.95;;;;;;;11.12;75.84;101058.53;1641220;85;21098;-70
2021/10/29 10:30:00;;;;;;;24.27;17.62;;;;;;;11.25;75.85;101053.64;1629779;85;21505;-70
2021/10/29 10:40:55;;;;;;;25.43;17.37;;;;;;;11.42;75.55;101062.06;1650916;85;21038;-70
2021/10/29 10:43:38;;;;;;;27.95;16.80;;;;;;;11.49;75.43;101062.81;1652205;85;21438;-69
2021/10/29 10:46:19;;;;;;;27.93;17.67;;;;;;;11.52;75.41;101060.19;1645320;86;20959;-69
2021/10/29 10:49:03;;;;;;;24.27;16.00;;;;;;;11.55;75.32;101057.13;1643842;85;21517;-69
2021/10/29 10:54:26;;;;;;;36.25;19.55;;;;;;;11.67;75.25;101059.14;1658828;84;21453;-70
2021/10/29 11:11:06;;;;;;;23.15;15.80;;;;;;;11.91;74.67;101043.29;1667407;85;21458;-70
2021/10/29 11:13:50;;;;;;;22.45;16.30;;;;;;;11.96;74.63;101035.45;1649544;84;21472;-70
2021/10/29 11:16:28;;;;;;;26.97;16.45;;;;;;;12.01;74.55;101031.02;1652856;85;21473;-69
2021/10/29 11:19:12;;;;;;;22.22;16.15;;;;;;;12.03;74.42;101027.52;1667553;85;21117;-69
2021/10/29 11:21:52;;;;;;;29.30;17.55;;;;;;;12.07;74.40;101025.30;1658673;84;21480;-69
2021/10/29 11:24:36;;;;;;;23.18;15.88;;;;;;;12.12;74.30;101027.83;1667465;85;20970;-69
2021/10/29 11:27:21;;;;;;;25.65;15.75;;;;;;;12.17;74.29;101027.31;1653033;85;20987;-69
2021/10/29 11:29:54;;;;;;;30.77;18.12;;;;;;;12.22;74.32;101024.20;1667397;84;21561;-70
2021/10/29 11:32:22;;;;;;;20.97;16.52;;;;;;;12.27;74.11;101021.09;1636986;85;20953;-70
2021/10/29 11:35:01;;;;;;;18.30;15.20;;;;;;;12.31;74.10;101017.58;1661668;85;21403;-70
2021/10/29 11:37:30;;;;;;;25.82;16.10;;;;;;;12.35;73.99;101015.78;1650960;84;21411;-70
2021/10/29 11:39:56;;;;;;;24.02;17.52;;;;;;;12.39;73.87;101009.23;1667995;85;20962;-70
2021/10/29 11:42:22;;;;;;;24.70;17.12;;;;;;;12.44;73.80;101006.11;1660739;84;21466;-70
2021/10/29 11:44:50;;;;;;;26.85;17.70;;;;;;;12.48;73.74;101009.03;1668326;85;20910;-70
2021/10/29 11:47:16;;;;;;;;;;;;;;;12.53;73.74;101006.36;1669594;84;22119;-70
2021/10/29 11:49:42;;;;;;;27.98;15.98;;;;;;;12.57;73.32;100999.80;1630739;86;20649;-70
2021/10/29 11:52:09;;;;;;;27.63;16.93;;;;;;;12.61;73.57;100999.30;1666463;84;21065;-70
2021/10/29 11:54:38;;;;;;;21.48;16.10;;;;;;;12.65;73.56;100993.62;1670374;84;21729;-70
2021/10/29 12:07:43;;;;;;;22.52;15.30;;;;;;;12.82;73.12;100982.48;1659926;84;21054;-70
2021/10/29 12:10:17;;;;;;;22.17;15.48;;;;;;;12.84;73.07;100978.11;1664276;85;21078;-70
2021/10/29 12:12:46;;;;;;;27.10;16.48;;;;;;;12.86;72.94;100975.05;1639902;85;20997;-70
2021/10/29 12:15:25;;;;;;;22.95;16.15;;;;;;;12.88;72.87;100977.17;1651063;86;21119;-70
2021/10/29 12:18:04;;;;;;;25.08;17.17;;;;;;;12.87;72.76;100978.05;1631366;85;21083;-70
2021/10/29 12:20:44;;;;;;;34.10;18.90;;;;;;;12.86;72.68;100968.56;1634559;87;21035;-70
2021/10/29 12:23:17;;;;;;;22.25;15.60;;;;;;;12.85;72.56;100968.14;1640324;87;20921;-70
2021/10/29 12:28:26;;;;;;;24.80;17.25;;;;;;;12.85;72.47;100961.66;1640597;87;21364;-70
2021/10/29 12:31:00;;;;;;;;;;;;;;;12.85;72.44;100959.92;1643896;87;20980;-70
2021/10/29 12:59:03;;;;;;;25.20;15.88;;;;;;;12.90;71.55;100933.43;1638701;85;20960;-70
2021/10/29 13:01:27;;;;;;;20.12;14.33;;;;;;;12.91;71.53;100935.58;1615753;87;21460;-70
2021/10/29 13:04:14;;;;;;;27.27;15.90;;;;;;;12.92;71.45;100934.70;1636457;85;20980;-70
2021/10/29 13:06:46;;;;;;;19.92;15.15;;;;;;;12.93;71.31;100933.81;1639869;87;21062;-70
2021/10/29 13:09:20;;;;;;;19.62;14.47;;;;;;;12.95;71.28;100935.94;1638912;86;21147;-70
2021/10/29 13:12:01;;;;;;;21.48;15.10;;;;;;;12.97;71.24;100933.30;1667557;84;21117;-70
2021/10/29 13:14:37;;;;;;;21.65;14.23;;;;;;;12.98;71.13;100930.68;1666067;84;21473;-70
2021/10/29 13:17:04;;;;;;;18.65;14.00;;;;;;;12.99;71.10;100924.60;1664870;84;21060;-70
2021/10/29 13:51:24;;;;;;;20.25;12.85;;;;;;;13.04;70.41;100912.79;1628677;85;21135;-70
2021/10/29 14:01:58;;;;;;;21.27;14.28;;;;;;;13.06;70.16;100907.13;1642389;86;21043;-70
2021/10/29 14:31:38;;;;;;;19.40;15.43;;;;;;;12.76;69.51;100883.55;1616585;88;21155;-69
2021/10/29 14:34:09;;;;;;;24.00;14.87;;;;;;;12.74;69.45;100886.61;1610598;87;347453;-69
2021/10/29 14:36:42;;;;;;;24.80;15.65;;;;;;;12.71;69.42;100881.48;1586856;89;21091;-69
2021/10/29 14:39:08;;;;;;;22.22;14.80;;;;;;;12.67;69.39;100881.14;1608302;88;21173;-70
2021/10/29 14:41:40;;;;;;;22.55;15.15;;;;;;;12.64;69.36;100879.05;1590775;87;21065;-70
2021/10/29 14:44:30;;;;;;;;;;;;;;;12.56;69.32;100876.16;1606219;89;21068;-69
2021/10/29 14:47:00;;;;;;;18.85;13.48;;;;;;;12.49;68.93;100870.69;1583107;87;20237;-70
2021/10/29 14:49:09;;;;;;;24.30;14.38;;;;;;;12.43;69.26;100867.39;1594588;88;21133;-70
2021/10/29 15:05:28;;;;;;;23.35;14.68;;;;;;;12.03;69.07;100862.08;1601431;88;21029;-69
2021/10/29 15:26:51;;;;;;;28.90;17.05;;;;;;;11.23;68.87;100843.98;1658354;85;21076;-69
2021/10/29 15:31:53;;;;;;;34.73;21.95;;;;;;;11.02;68.84;100847.32;1658528;85;21111;-69
2021/10/29 15:42:30;;;;;;;40.30;23.60;;;;;;;10.58;68.80;100846.20;1637218;86;21054;-69